Time;durP1;ratioP1;P1;durP2;ratioP2;P2;SDS_P1;SDS_P2;PMS_P1;PMS_P2;Temp;Humidity;BMP_temperature;BMP_pressure;BME280_temperature;BME280_humidity;BME280_pressure;Samples;Min_cycle;Max_cycle;Signal;HPM_P1;HPM_P2
2021/01/11 00:00:11;;;;;;;61.47;32.55;;;;;;;;;;5033898;28;20041;-50
2021/01/11 00:02:37;;;;;;;100.18;43.08;;;;;;;;;;5039002;28;20501;-51
2021/01/11 00:05:03;;;;;;;108.30;47.05;;;;;;;;;;5030085;28;20044;-49
2021/01/11 00:07:30;;;;;;;286.67;89.88;;;;;;;;;;5032933;28;20048;-50
2021/01/11 00:09:56;;;;;;;577.90;177.45;;;;;;;;;;5028507;28;20026;-50
2021/01/11 00:12:22;;;;;;;196.25;70.72;;;;;;;;;;5032536;28;20022;-51
2021/01/11 00:14:48;;;;;;;346.33;108.85;;;;;;;;;;5031598;28;20025;-49
2021/01/11 00:17:14;;;;;;;215.90;73.80;;;;;;;;;;5041080;28;20108;-50
2021/01/11 00:19:40;;;;;;;106.78;47.20;;;;;;;;;;5044164;28;20026;-50
2021/01/11 00:22:06;;;;;;;124.15;55.13;;;;;;;;;;5031371;28;20385;-50
2021/01/11 00:24:33;;;;;;;273.60;93.47;;;;;;;;;;5035494;28;20124;-49
2021/01/11 00:26:59;;;;;;;208.15;76.75;;;;;;;;;;5031705;28;20040;-51
2021/01/11 00:29:26;;;;;;;361.30;109.50;;;;;;;;;;5031663;28;20057;-50
2021/01/11 00:31:52;;;;;;;253.65;82.18;;;;;;;;;;5031605;28;20505;-50
2021/01/11 00:34:18;;;;;;;223.18;72.20;;;;;;;;;;5031584;28;20029;-49
2021/01/11 00:36:50;;;;;;;459.40;135.60;;;;;;;;;;5032216;28;20101;-50
2021/01/11 00:39:16;;;;;;;868.45;260.08;;;;;;;;;;5031336;28;20536;-49
2021/01/11 00:41:42;;;;;;;269.50;84.30;;;;;;;;;;5030013;28;20244;-51
2021/01/11 00:44:08;;;;;;;505.88;143.60;;;;;;;;;;5033649;28;20033;-51
2021/01/11 00:46:34;;;;;;;279.98;94.82;;;;;;;;;;5031359;28;20025;-49
2021/01/11 00:49:00;;;;;;;394.67;123.32;;;;;;;;;;5032149;28;20056;-50
2021/01/11 00:51:26;;;;;;;137.90;51.47;;;;;;;;;;5031387;28;20436;-51
2021/01/11 00:53:53;;;;;;;90.30;39.53;;;;;;;;;;5034062;28;20029;-51
2021/01/11 00:56:20;;;;;;;88.68;41.45;;;;;;;;;;5031749;28;20053;-51
2021/01/11 00:58:46;;;;;;;202.05;74.45;;;;;;;;;;5031707;28;20060;-51
2021/01/11 01:01:13;;;;;;;119.03;48.75;;;;;;;;;;5031728;28;20043;-49
2021/01/11 01:03:40;;;;;;;92.50;44.22;;;;;;;;;;5029184;28;20032;-51
2021/01/11 01:06:07;;;;;;;106.03;44.03;;;;;;;;;;5028389;28;20108;-51
2021/01/11 01:08:33;;;;;;;265.30;94.45;;;;;;;;;;5031039;28;20064;-50
2021/01/11 01:11:00;;;;;;;87.25;38.33;;;;;;;;;;5031255;28;20018;-50
2021/01/11 01:13:26;;;;;;;162.75;64.72;;;;;;;;;;5030833;28;20053;-50
2021/01/11 01:15:52;;;;;;;116.90;49.28;;;;;;;;;;5031926;28;20022;-50
2021/01/11 01:18:18;;;;;;;550.38;216.13;;;;;;;;;;5023591;28;20030;-50
2021/01/11 01:20:44;;;;;;;196.02;81.90;;;;;;;;;;5031119;28;20025;-50
2021/01/11 01:23:10;;;;;;;142.15;56.25;;;;;;;;;;5030093;28;20033;-50
2021/01/11 01:25:36;;;;;;;63.75;31.35;;;;;;;;;;5031074;28;20145;-50
2021/01/11 01:28:02;;;;;;;105.00;45.08;;;;;;;;;;5033109;28;20033;-51
2021/01/11 01:30:28;;;;;;;79.50;37.35;;;;;;;;;;5035115;28;20033;-50
2021/01/11 01:32:56;;;;;;;58.58;30.45;;;;;;;;;;5034368;28;20039;-50
2021/01/11 01:35:22;;;;;;;90.47;42.53;;;;;;;;;;5033084;28;20590;-50
2021/01/11 01:37:48;;;;;;;70.47;34.65;;;;;;;;;;5034710;28;20021;-50
2021/01/11 01:40:14;;;;;;;73.20;37.63;;;;;;;;;;5034847;28;20116;-49
2021/01/11 01:42:40;;;;;;;58.25;31.05;;;;;;;;;;5034886;28;20018;-50
2021/01/11 01:45:07;;;;;;;55.08;29.15;;;;;;;;;;5035114;28;20481;-48
2021/01/11 01:47:34;;;;;;;50.53;27.92;;;;;;;;;;5035794;28;20080;-48
2021/01/11 01:50:01;;;;;;;60.40;33.72;;;;;;;;;;5045919;28;20024;-50
2021/01/11 01:52:27;;;;;;;48.10;26.63;;;;;;;;;;5031351;28;20378;-50
2021/01/11 01:54:53;;;;;;;45.53;25.15;;;;;;;;;;5034535;28;20025;-51
2021/01/11 01:57:20;;;;;;;79.20;39.75;;;;;;;;;;5034618;28;20377;-50
2021/01/11 01:59:48;;;;;;;55.03;29.40;;;;;;;;;;5034876;28;20091;-50
2021/01/11 02:02:15;;;;;;;79.20;38.17;;;;;;;;;;5030891;28;20018;-51
2021/01/11 02:04:42;;;;;;;46.40;25.23;;;;;;;;;;5030568;28;20033;-50
2021/01/11 02:07:12;;;;;;;68.53;34.13;;;;;;;;;;5034878;28;20082;-50
2021/01/11 02:09:44;;;;;;;42.47;22.98;;;;;;;;;;5034887;28;20022;-51
2021/01/11 02:12:16;;;;;;;44.00;24.00;;;;;;;;;;5033899;28;20070;-51
2021/01/11 02:14:42;;;;;;;;;;;;;;;;;;5035084;28;20079;-51
2021/01/11 02:17:32;;;;;;;40.63;21.17;;;;;;;;;;5034409;28;19909;-51
2021/01/11 02:20:13;;;;;;;29.95;16.30;;;;;;;;;;4991388;28;20077;-50
2021/01/11 02:22:54;;;;;;;43.15;21.77;;;;;;;;;;4989182;28;20069;-50
2021/01/11 02:25:29;;;;;;;72.22;30.10;;;;;;;;;;4992954;28;20033;-50
2021/01/11 02:27:56;;;;;;;44.60;22.27;;;;;;;;;;4992458;28;20038;-50
2021/01/11 02:30:31;;;;;;;35.78;18.60;;;;;;;;;;4992914;28;20113;-49
2021/01/11 02:32:59;;;;;;;29.15;14.88;;;;;;;;;;4992152;28;20023;-50
2021/01/11 02:35:26;;;;;;;30.13;16.85;;;;;;;;;;4990880;28;20425;-50
2021/01/11 02:37:52;;;;;;;48.60;26.27;;;;;;;;;;4990995;28;20125;-49
2021/01/11 02:40:18;;;;;;;46.05;23.60;;;;;;;;;;4991794;28;20045;-50
2021/01/11 02:42:45;;;;;;;53.95;27.38;;;;;;;;;;4991873;28;20042;-49
2021/01/11 02:45:11;;;;;;;49.90;24.17;;;;;;;;;;4991467;28;20074;-50
2021/01/11 02:47:57;;;;;;;37.10;20.10;;;;;;;;;;4985496;28;20639;-48
2021/01/11 02:50:24;;;;;;;27.23;15.68;;;;;;;;;;4919804;29;20051;-49
2021/01/11 02:53:29;;;;;;;65.43;30.35;;;;;;;;;;4918137;29;20052;-51
2021/01/11 02:56:00;;;;;;;33.20;17.75;;;;;;;;;;4864266;29;20045;-50
2021/01/11 02:58:28;;;;;;;37.20;18.42;;;;;;;;;;4901166;29;20510;-50
2021/01/11 03:00:55;;;;;;;58.30;25.70;;;;;;;;;;4898277;29;20041;-50
2021/01/11 03:03:21;;;;;;;52.85;23.75;;;;;;;;;;4899429;29;20113;-49
2021/01/11 03:05:50;;;;;;;45.22;21.60;;;;;;;;;;4905285;29;20037;-49
2021/01/11 03:08:16;;;;;;;39.55;20.45;;;;;;;;;;4898262;29;20040;-49
2021/01/11 03:10:42;;;;;;;46.40;23.58;;;;;;;;;;4900443;29;20512;-49
2021/01/11 03:13:08;;;;;;;160.55;71.63;;;;;;;;;;4896320;29;20400;-48
2021/01/11 03:15:34;;;;;;;38.90;22.70;;;;;;;;;;4901268;29;20191;-49
2021/01/11 03:18:00;;;;;;;40.63;23.40;;;;;;;;;;4898199;29;20025;-49
2021/01/11 03:20:26;;;;;;;61.50;32.13;;;;;;;;;;4900355;29;20048;-49
2021/01/11 03:22:52;;;;;;;21.50;13.55;;;;;;;;;;4897738;29;20020;-49
2021/01/11 03:25:18;;;;;;;24.58;14.10;;;;;;;;;;4895581;29;20037;-49
2021/01/11 03:27:44;;;;;;;24.63;14.27;;;;;;;;;;4994047;28;20123;-50
2021/01/11 03:30:10;;;;;;;22.30;12.95;;;;;;;;;;5015074;28;20037;-49
2021/01/11 03:32:36;;;;;;;21.40;12.18;;;;;;;;;;5019896;28;20030;-49
2021/01/11 03:35:03;;;;;;;33.22;17.88;;;;;;;;;;5013276;28;20053;-50
2021/01/11 03:37:29;;;;;;;79.47;38.35;;;;;;;;;;5014638;28;20032;-48
2021/01/11 03:39:55;;;;;;;43.58;23.05;;;;;;;;;;5012942;28;20038;-48
2021/01/11 03:42:21;;;;;;;22.30;13.70;;;;;;;;;;5012869;28;20026;-49
2021/01/11 03:44:48;;;;;;;21.25;13.32;;;;;;;;;;5014774;28;20018;-49
2021/01/11 03:47:14;;;;;;;22.65;13.10;;;;;;;;;;5030068;28;20022;-51
2021/01/11 03:49:40;;;;;;;22.27;14.45;;;;;;;;;;5033004;28;20025;-51
2021/01/11 03:52:06;;;;;;;55.78;27.20;;;;;;;;;;5029560;28;20025;-51
2021/01/11 03:54:32;;;;;;;30.88;18.20;;;;;;;;;;5028994;28;20037;-51
2021/01/11 03:56:58;;;;;;;24.55;14.07;;;;;;;;;;5026492;28;20485;-51
2021/01/11 03:59:24;;;;;;;19.85;12.30;;;;;;;;;;5032299;28;20052;-50
2021/01/11 04:01:51;;;;;;;21.58;13.30;;;;;;;;;;5032575;28;20017;-50
2021/01/11 04:04:17;;;;;;;21.80;14.13;;;;;;;;;;5029172;28;20033;-51
2021/01/11 04:06:43;;;;;;;23.13;14.93;;;;;;;;;;5031866;28;20017;-50
2021/01/11 04:09:10;;;;;;;27.38;16.83;;;;;;;;;;5031092;28;20406;-50
2021/01/11 04:11:36;;;;;;;20.15;12.50;;;;;;;;;;5032190;28;20036;-50
2021/01/11 04:14:02;;;;;;;27.52;16.73;;;;;;;;;;5032080;28;20013;-51
2021/01/11 04:16:28;;;;;;;24.98;13.98;;;;;;;;;;5029089;28;20037;-50
2021/01/11 04:18:54;;;;;;;18.35;12.10;;;;;;;;;;5032041;28;20057;-51
2021/01/11 04:21:20;;;;;;;23.58;15.02;;;;;;;;;;5031335;28;20053;-50
2021/01/11 04:23:46;;;;;;;24.52;15.27;;;;;;;;;;5023699;28;20021;-51
2021/01/11 04:26:12;;;;;;;42.55;25.15;;;;;;;;;;5031767;28;20439;-50
2021/01/11 04:28:39;;;;;;;41.75;24.27;;;;;;;;;;5031589;28;20100;-50
2021/01/11 04:31:05;;;;;;;41.45;23.33;;;;;;;;;;5029496;28;20076;-50
2021/01/11 04:33:32;;;;;;;82.03;43.33;;;;;;;;;;5012514;28;20026;-50
2021/01/11 04:35:58;;;;;;;49.88;29.25;;;;;;;;;;5028998;28;20036;-50
2021/01/11 04:38:24;;;;;;;32.97;19.92;;;;;;;;;;5031921;28;20499;-50
2021/01/11 04:40:50;;;;;;;43.88;27.05;;;;;;;;;;5032004;28;20022;-51
2021/01/11 04:43:16;;;;;;;42.58;25.13;;;;;;;;;;5032078;28;20021;-50
2021/01/11 04:45:43;;;;;;;32.65;21.58;;;;;;;;;;5032106;28;20702;-50
2021/01/11 04:48:11;;;;;;;36.13;22.95;;;;;;;;;;5033889;28;20112;-50
2021/01/11 04:50:37;;;;;;;42.92;27.45;;;;;;;;;;5038823;28;20493;-51
2021/01/11 04:53:13;;;;;;;45.03;26.70;;;;;;;;;;5034214;28;20025;-50
2021/01/11 04:55:39;;;;;;;40.05;24.55;;;;;;;;;;5026051;28;20034;-51
2021/01/11 04:58:09;;;;;;;37.63;23.55;;;;;;;;;;5031901;28;20022;-51
2021/01/11 05:00:35;;;;;;;28.98;17.50;;;;;;;;;;5033178;28;20406;-50
2021/01/11 05:03:06;;;;;;;28.42;16.55;;;;;;;;;;5029980;28;20080;-50
2021/01/11 05:05:37;;;;;;;24.85;15.27;;;;;;;;;;5035993;28;20026;-51
2021/01/11 05:08:03;;;;;;;27.08;16.30;;;;;;;;;;5035689;28;20029;-50
2021/01/11 05:10:36;;;;;;;24.38;14.50;;;;;;;;;;5035032;28;20041;-50
2021/01/11 05:13:06;;;;;;;27.48;16.67;;;;;;;;;;5029978;28;20025;-51
2021/01/11 05:15:36;;;;;;;31.42;18.15;;;;;;;;;;5034883;28;20025;-51
2021/01/11 05:18:12;;;;;;;24.98;15.05;;;;;;;;;;5043032;28;20090;-48
2021/01/11 05:20:38;;;;;;;30.75;18.23;;;;;;;;;;5028902;28;20410;-49
2021/01/11 05:23:14;;;;;;;30.23;17.42;;;;;;;;;;5035238;28;20032;-48
2021/01/11 05:25:41;;;;;;;31.05;17.70;;;;;;;;;;5034901;28;20048;-49
2021/01/11 05:28:08;;;;;;;30.33;17.70;;;;;;;;;;5035159;28;20087;-51
2021/01/11 05:30:35;;;;;;;28.92;17.27;;;;;;;;;;5035129;28;20060;-50
2021/01/11 05:33:01;;;;;;;36.35;21.30;;;;;;;;;;5033591;28;20216;-51
2021/01/11 05:35:27;;;;;;;43.50;23.73;;;;;;;;;;5035102;28;20021;-50
2021/01/11 05:37:59;;;;;;;50.30;26.08;;;;;;;;;;5024358;28;20040;-51
2021/01/11 05:40:25;;;;;;;61.30;30.98;;;;;;;;;;5034942;28;20611;-49
2021/01/11 05:42:55;;;;;;;88.25;43.00;;;;;;;;;;5037616;28;20035;-50
2021/01/11 05:45:23;;;;;;;101.78;50.22;;;;;;;;;;5028773;28;20033;-50
2021/01/11 05:47:59;;;;;;;60.45;35.17;;;;;;;;;;5031732;28;20028;-51
2021/01/11 05:50:29;;;;;;;56.00;30.95;;;;;;;;;;5027846;28;20041;-50
2021/01/11 05:52:55;;;;;;;43.15;25.85;;;;;;;;;;5035016;28;20026;-50
2021/01/11 05:55:21;;;;;;;442.73;213.93;;;;;;;;;;5033677;28;20055;-50
2021/01/11 05:57:58;;;;;;;205.45;102.00;;;;;;;;;;5033246;28;20022;-50
2021/01/11 06:00:25;;;;;;;123.85;66.53;;;;;;;;;;5034604;28;20033;-50
2021/01/11 06:02:51;;;;;;;106.97;62.40;;;;;;;;;;5028310;28;20091;-49
2021/01/11 06:05:18;;;;;;;70.80;45.88;;;;;;;;;;5034822;28;20026;-51
2021/01/11 06:07:45;;;;;;;50.88;32.70;;;;;;;;;;5034915;28;20059;-51
2021/01/11 06:10:12;;;;;;;46.80;28.98;;;;;;;;;;5034578;28;20037;-50
2021/01/11 06:12:39;;;;;;;41.03;24.88;;;;;;;;;;5034210;28;20025;-51
2021/01/11 06:15:07;;;;;;;44.03;27.35;;;;;;;;;;5034719;28;20032;-50
2021/01/11 06:17:34;;;;;;;58.45;30.42;;;;;;;;;;5033451;28;20441;-51
2021/01/11 06:20:00;;;;;;;44.92;24.77;;;;;;;;;;5034430;28;20037;-51
2021/01/11 06:22:44;;;;;;;34.60;21.13;;;;;;;;;;5034361;28;20025;-51
2021/01/11 06:25:22;;;;;;;33.13;21.05;;;;;;;;;;5034226;28;20533;-51
2021/01/11 06:28:03;;;;;;;83.38;45.10;;;;;;;;;;5033978;28;20045;-51
2021/01/11 06:30:38;;;;;;;51.75;31.00;;;;;;;;;;5034343;28;20033;-51
2021/01/11 06:33:05;;;;;;;46.20;28.55;;;;;;;;;;5021606;28;20026;-50
2021/01/11 06:35:31;;;;;;;49.72;29.85;;;;;;;;;;5034225;28;20384;-51
2021/01/11 06:38:21;;;;;;;61.88;36.97;;;;;;;;;;5034103;28;20021;-50
2021/01/11 06:40:47;;;;;;;78.82;44.42;;;;;;;;;;5033975;28;20385;-51
2021/01/11 06:43:14;;;;;;;101.32;51.38;;;;;;;;;;5034184;28;20042;-50
2021/01/11 06:45:41;;;;;;;107.10;55.25;;;;;;;;;;5033982;28;20155;-51
2021/01/11 06:48:08;;;;;;;83.28;45.20;;;;;;;;;;5034063;28;20021;-51
2021/01/11 06:50:34;;;;;;;64.10;35.83;;;;;;;;;;5033849;28;20032;-50
2021/01/11 06:53:01;;;;;;;69.43;38.25;;;;;;;;;;5033328;28;20477;-51
2021/01/11 06:55:28;;;;;;;74.05;39.90;;;;;;;;;;5033459;28;20480;-51
2021/01/11 06:57:58;;;;;;;77.22;39.05;;;;;;;;;;5033637;28;20092;-51
2021/01/11 07:00:32;;;;;;;73.57;40.95;;;;;;;;;;5033681;28;20120;-51
2021/01/11 07:02:58;;;;;;;78.28;41.80;;;;;;;;;;5033407;28;20034;-51
2021/01/11 07:05:36;;;;;;;120.50;51.00;;;;;;;;;;5033791;28;20037;-50
2021/01/11 07:08:06;;;;;;;107.82;48.67;;;;;;;;;;5033654;28;20397;-51
2021/01/11 07:10:32;;;;;;;152.35;67.60;;;;;;;;;;5033713;28;20033;-50
2021/01/11 07:13:34;;;;;;;132.13;61.63;;;;;;;;;;5033548;28;20021;-49
2021/01/11 07:16:00;;;;;;;94.68;47.30;;;;;;;;;;4982905;28;20037;-50
2021/01/11 07:18:38;;;;;;;78.68;41.78;;;;;;;;;;4991646;28;20859;-50
2021/01/11 07:21:30;;;;;;;59.78;34.80;;;;;;;;;;4991999;28;20101;-50
2021/01/11 07:23:59;;;;;;;58.72;35.45;;;;;;;;;;4986542;28;20045;-50
2021/01/11 07:26:26;;;;;;;57.75;35.30;;;;;;;;;;4991565;28;20034;-49
2021/01/11 07:28:55;;;;;;;53.97;33.90;;;;;;;;;;4991360;28;20182;-51
2021/01/11 07:31:28;;;;;;;61.67;37.63;;;;;;;;;;4991814;28;20490;-51
2021/01/11 07:33:55;;;;;;;52.85;33.10;;;;;;;;;;4991881;28;20034;-50
2021/01/11 07:36:21;;;;;;;51.90;32.67;;;;;;;;;;4991659;28;20042;-50
2021/01/11 07:38:47;;;;;;;52.00;31.05;;;;;;;;;;4991570;28;20034;-50
2021/01/11 07:41:24;;;;;;;55.78;33.67;;;;;;;;;;4991469;28;20496;-50
2021/01/11 07:43:50;;;;;;;64.63;37.70;;;;;;;;;;4990267;28;20046;-50
2021/01/11 07:46:21;;;;;;;64.15;39.80;;;;;;;;;;4991596;28;20034;-51
2021/01/11 07:48:47;;;;;;;64.23;37.83;;;;;;;;;;4992090;28;20421;-50
2021/01/11 07:51:13;;;;;;;65.57;38.53;;;;;;;;;;5032904;28;20030;-51
2021/01/11 07:53:39;;;;;;;78.97;47.45;;;;;;;;;;5032844;28;20076;-51
2021/01/11 07:56:14;;;;;;;52.90;31.83;;;;;;;;;;5109988;27;20867;-50
2021/01/11 07:58:52;;;;;;;50.38;30.08;;;;;;;;;;5110096;28;20032;-50
2021/01/11 08:01:22;;;;;;;40.80;25.83;;;;;;;;;;5109908;28;20020;-50
2021/01/11 08:03:49;;;;;;;45.47;29.58;;;;;;;;;;5109861;28;20042;-49
2021/01/11 08:06:15;;;;;;;43.78;26.90;;;;;;;;;;5109649;28;20034;-50
2021/01/11 08:08:41;;;;;;;50.60;28.30;;;;;;;;;;5109801;28;20019;-51
2021/01/11 08:11:07;;;;;;;45.10;28.52;;;;;;;;;;5109754;28;20031;-51
2021/01/11 08:13:33;;;;;;;45.05;28.27;;;;;;;;;;5108540;28;20367;-51
2021/01/11 08:16:13;;;;;;;67.95;40.55;;;;;;;;;;5109666;28;20475;-49
2021/01/11 08:18:40;;;;;;;103.03;57.83;;;;;;;;;;5095914;28;20028;-50
2021/01/11 08:21:07;;;;;;;91.15;54.65;;;;;;;;;;5109707;28;20020;-50
2021/01/11 08:23:33;;;;;;;107.32;57.10;;;;;;;;;;5109499;28;20024;-51
2021/01/11 08:26:00;;;;;;;115.95;65.60;;;;;;;;;;5109388;28;20111;-50
2021/01/11 08:28:28;;;;;;;105.38;61.45;;;;;;;;;;5109403;28;20059;-50
2021/01/11 08:30:54;;;;;;;81.38;46.25;;;;;;;;;;5109592;28;20391;-51
2021/01/11 08:33:21;;;;;;;89.00;49.53;;;;;;;;;;5109164;28;20026;-50
2021/01/11 08:35:47;;;;;;;102.03;58.08;;;;;;;;;;5109281;28;20028;-51
2021/01/11 08:38:13;;;;;;;99.90;57.45;;;;;;;;;;5109447;28;20031;-50
2021/01/11 08:40:41;;;;;;;103.88;57.30;;;;;;;;;;5109112;28;20141;-50
2021/01/11 08:43:25;;;;;;;77.50;43.83;;;;;;;;;;5109626;28;20069;-50
2021/01/11 08:45:52;;;;;;;83.68;50.70;;;;;;;;;;5109085;28;20016;-49
2021/01/11 08:48:24;;;;;;;86.93;51.40;;;;;;;;;;5109684;28;20406;-49
2021/01/11 08:50:50;;;;;;;;;;;;;;;;;;5089613;28;20016;-48
2021/01/11 08:53:30;;;;;;;184.50;105.85;;;;;;;;;;5099785;28;20286;-50
2021/01/11 08:56:04;;;;;;;178.45;98.47;;;;;;;;;;5108585;28;20052;-50
2021/01/11 08:58:30;;;;;;;85.53;49.40;;;;;;;;;;5109032;28;20020;-49
2021/01/11 09:01:09;;;;;;;80.13;52.85;;;;;;;;;;5108788;28;20080;-50
2021/01/11 09:03:44;;;;;;;82.78;50.63;;;;;;;;;;5109032;28;20027;-50
2021/01/11 09:06:11;;;;;;;88.47;54.05;;;;;;;;;;5103134;28;20016;-50
2021/01/11 09:08:37;;;;;;;122.72;68.85;;;;;;;;;;5095265;28;20482;-50
2021/01/11 09:11:10;;;;;;;103.97;58.17;;;;;;;;;;5077875;28;20028;-49
2021/01/11 09:13:36;;;;;;;184.50;95.68;;;;;;;;;;5074985;28;20039;-50
2021/01/11 09:16:15;;;;;;;258.38;125.97;;;;;;;;;;5074825;28;20045;-50
2021/01/11 09:18:41;;;;;;;141.40;70.63;;;;;;;;;;5074463;28;20032;-50
2021/01/11 09:21:07;;;;;;;150.10;96.40;;;;;;;;;;5074789;28;20017;-50
2021/01/11 09:23:33;;;;;;;133.48;72.22;;;;;;;;;;5073504;28;20033;-50
2021/01/11 09:26:00;;;;;;;97.75;55.83;;;;;;;;;;5074378;28;20024;-50
2021/01/11 09:28:27;;;;;;;87.93;49.67;;;;;;;;;;5088963;28;20031;-50
2021/01/11 09:30:54;;;;;;;96.53;52.88;;;;;;;;;;5074769;28;20434;-50
2021/01/11 09:33:20;;;;;;;90.75;49.67;;;;;;;;;;5074525;28;20055;-49
2021/01/11 09:35:46;;;;;;;101.93;54.40;;;;;;;;;;5074381;28;20058;-50
2021/01/11 09:38:12;;;;;;;137.23;70.60;;;;;;;;;;5074854;28;20361;-51
2021/01/11 09:40:38;;;;;;;95.28;53.83;;;;;;;;;;5073856;28;20029;-51
2021/01/11 09:43:04;;;;;;;86.72;50.35;;;;;;;;;;5074332;28;20024;-50
2021/01/11 09:45:30;;;;;;;87.45;50.60;;;;;;;;;;5074212;28;20035;-51
2021/01/11 09:47:57;;;;;;;72.72;43.90;;;;;;;;;;5074403;28;20031;-51
2021/01/11 09:50:23;;;;;;;111.82;66.95;;;;;;;;;;5073923;28;20029;-50
2021/01/11 09:52:49;;;;;;;98.47;58.70;;;;;;;;;;5080712;28;20028;-50
2021/01/11 09:55:16;;;;;;;92.97;57.05;;;;;;;;;;5093736;28;20139;-51
2021/01/11 09:57:42;;;;;;;76.60;47.45;;;;;;;;;;5093963;28;20099;-50
2021/01/11 10:00:08;;;;;;;82.88;51.28;;;;;;;;;;5094013;28;20024;-50
2021/01/11 10:02:34;;;;;;;84.50;51.47;;;;;;;;;;5094063;28;20077;-50
2021/01/11 10:05:00;;;;;;;84.30;51.63;;;;;;;;;;5094073;28;20020;-50
2021/01/11 10:07:26;;;;;;;70.82;44.13;;;;;;;;;;5093903;28;20027;-50
2021/01/11 10:09:52;;;;;;;95.32;56.25;;;;;;;;;;5093022;28;20054;-50
2021/01/11 10:12:20;;;;;;;81.38;48.05;;;;;;;;;;5079336;28;20028;-50
2021/01/11 10:14:46;;;;;;;95.82;56.38;;;;;;;;;;5073551;28;20033;-50
2021/01/11 10:17:12;;;;;;;99.28;58.55;;;;;;;;;;5073252;28;20025;-50
2021/01/11 10:19:38;;;;;;;94.28;54.85;;;;;;;;;;5073079;28;20054;-50
2021/01/11 10:22:04;;;;;;;92.25;53.53;;;;;;;;;;5073679;28;20020;-48
2021/01/11 10:24:30;;;;;;;81.75;50.30;;;;;;;;;;5073541;28;20033;-50
2021/01/11 10:26:57;;;;;;;66.10;42.95;;;;;;;;;;5073212;28;20025;-50
2021/01/11 10:29:24;;;;;;;68.65;44.30;;;;;;;;;;5073487;28;20021;-50
2021/01/11 10:31:50;;;;;;;61.13;39.15;;;;;;;;;;5087708;28;20016;-50
2021/01/11 10:34:17;;;;;;;83.82;51.20;;;;;;;;;;5073330;28;20384;-50
2021/01/11 10:36:48;;;;;;;104.07;63.85;;;;;;;;;;5072761;28;20169;-50
2021/01/11 10:39:14;;;;;;;72.30;46.20;;;;;;;;;;5073369;28;20020;-49
2021/01/11 10:41:41;;;;;;;104.78;62.85;;;;;;;;;;5072762;28;20098;-51
2021/01/11 10:44:08;;;;;;;107.97;66.20;;;;;;;;;;5073182;28;20025;-50
2021/01/11 10:46:37;;;;;;;86.78;53.60;;;;;;;;;;5072608;28;20033;-49
2021/01/11 10:49:04;;;;;;;76.15;48.88;;;;;;;;;;5072839;28;20027;-50
2021/01/11 10:51:33;;;;;;;71.47;45.20;;;;;;;;;;5072778;28;20025;-50
2021/01/11 10:53:59;;;;;;;68.80;43.80;;;;;;;;;;5088906;28;20047;-48
2021/01/11 10:56:25;;;;;;;76.30;47.38;;;;;;;;;;5092695;28;20125;-51
2021/01/11 10:58:51;;;;;;;85.45;50.08;;;;;;;;;;5092984;28;20475;-49
2021/01/11 11:01:18;;;;;;;92.43;55.88;;;;;;;;;;5075200;28;20499;-48
2021/01/11 11:03:44;;;;;;;93.47;55.70;;;;;;;;;;5085260;28;20471;-48
2021/01/11 11:06:10;;;;;;;88.90;53.97;;;;;;;;;;5092212;28;20475;-49
2021/01/11 11:08:36;;;;;;;66.90;41.00;;;;;;;;;;5089036;28;20032;-50
2021/01/11 11:11:02;;;;;;;63.33;40.40;;;;;;;;;;5088950;28;20049;-50
2021/01/11 11:13:28;;;;;;;87.95;47.08;;;;;;;;;;5092676;28;20056;-50
2021/01/11 11:15:54;;;;;;;74.07;41.92;;;;;;;;;;5092348;28;20118;-50
2021/01/11 11:18:20;;;;;;;72.03;46.00;;;;;;;;;;5092430;28;20028;-50
2021/01/11 11:20:47;;;;;;;63.60;40.33;;;;;;;;;;5092448;28;20035;-50
2021/01/11 11:23:13;;;;;;;62.85;39.72;;;;;;;;;;5092351;28;20411;-50
2021/01/11 11:25:44;;;;;;;62.95;40.40;;;;;;;;;;5092219;28;20032;-49
2021/01/11 11:28:10;;;;;;;63.25;40.78;;;;;;;;;;5090103;28;20035;-51
2021/01/11 11:30:36;;;;;;;71.80;45.47;;;;;;;;;;5090667;28;20081;-50
2021/01/11 11:33:02;;;;;;;88.60;54.63;;;;;;;;;;5092050;28;20035;-50
2021/01/11 11:35:29;;;;;;;115.40;68.53;;;;;;;;;;5092117;28;20047;-49
2021/01/11 11:37:56;;;;;;;78.70;49.13;;;;;;;;;;5092065;28;20015;-52
2021/01/11 11:40:22;;;;;;;81.60;52.03;;;;;;;;;;5092224;28;20028;-49
2021/01/11 11:42:48;;;;;;;91.13;56.90;;;;;;;;;;5091629;28;20024;-50
2021/01/11 11:45:15;;;;;;;89.75;57.35;;;;;;;;;;5091671;28;20059;-51
2021/01/11 11:47:42;;;;;;;78.82;47.38;;;;;;;;;;5090882;28;20048;-50
2021/01/11 11:50:09;;;;;;;74.90;45.47;;;;;;;;;;5077382;28;20063;-50
2021/01/11 11:52:37;;;;;;;73.68;44.70;;;;;;;;;;5077602;28;20777;-50
2021/01/11 11:55:03;;;;;;;65.47;40.60;;;;;;;;;;5090175;28;20109;-50
2021/01/11 11:57:29;;;;;;;67.90;42.28;;;;;;;;;;5088534;28;20031;-49
2021/01/11 11:59:55;;;;;;;66.22;42.28;;;;;;;;;;5071571;28;20056;-49
2021/01/11 12:02:21;;;;;;;63.42;40.45;;;;;;;;;;5075292;28;20529;-50
2021/01/11 12:04:48;;;;;;;75.70;44.78;;;;;;;;;;5080217;28;20381;-49
2021/01/11 12:07:14;;;;;;;81.53;51.75;;;;;;;;;;5080461;28;20029;-49
2021/01/11 12:09:41;;;;;;;57.15;37.60;;;;;;;;;;5078773;28;20036;-49
2021/01/11 12:12:07;;;;;;;58.42;37.00;;;;;;;;;;5077040;28;20360;-49
2021/01/11 12:14:33;;;;;;;88.78;50.70;;;;;;;;;;5082924;28;20029;-50
2021/01/11 12:17:01;;;;;;;80.35;44.88;;;;;;;;;;5074724;28;20028;-49
2021/01/11 12:19:27;;;;;;;122.88;66.30;;;;;;;;;;5073908;28;20437;-50
2021/01/11 12:21:53;;;;;;;138.05;76.82;;;;;;;;;;5074843;28;20460;-50
2021/01/11 12:24:19;;;;;;;83.13;49.40;;;;;;;;;;5071563;28;20040;-48
2021/01/11 12:26:51;;;;;;;102.30;58.80;;;;;;;;;;5075714;28;20044;-49
2021/01/11 12:29:17;;;;;;;96.45;55.03;;;;;;;;;;5071366;28;20059;-49
2021/01/11 12:31:44;;;;;;;88.85;50.17;;;;;;;;;;5069701;28;20430;-49
2021/01/11 12:34:11;;;;;;;92.20;53.50;;;;;;;;;;5071016;28;20108;-50
2021/01/11 12:36:37;;;;;;;87.30;49.17;;;;;;;;;;5072825;28;20479;-48
2021/01/11 12:39:12;;;;;;;94.63;56.40;;;;;;;;;;5074023;28;20028;-50
2021/01/11 12:41:38;;;;;;;84.13;50.42;;;;;;;;;;5074433;28;20120;-51
2021/01/11 12:44:08;;;;;;;86.60;52.40;;;;;;;;;;5078217;28;20033;-50
2021/01/11 12:46:34;;;;;;;84.65;50.75;;;;;;;;;;5080862;28;20051;-50
2021/01/11 12:49:00;;;;;;;84.78;49.97;;;;;;;;;;5087760;28;20445;-50
2021/01/11 12:51:26;;;;;;;78.93;47.05;;;;;;;;;;5079818;28;20095;-50
2021/01/11 12:53:53;;;;;;;74.90;46.20;;;;;;;;;;5075974;28;20020;-49
2021/01/11 12:56:20;;;;;;;70.25;42.30;;;;;;;;;;5088454;28;20048;-50
2021/01/11 12:58:47;;;;;;;76.50;45.85;;;;;;;;;;5075140;28;20012;-48
2021/01/11 13:01:17;;;;;;;79.97;48.42;;;;;;;;;;5074963;28;20092;-50
2021/01/11 13:03:43;;;;;;;112.70;64.22;;;;;;;;;;5080701;28;20016;-49
2021/01/11 13:06:10;;;;;;;114.13;64.95;;;;;;;;;;5075202;28;20384;-49
2021/01/11 13:08:36;;;;;;;75.00;43.70;;;;;;;;;;5076325;28;20024;-49
2021/01/11 13:11:02;;;;;;;109.50;66.78;;;;;;;;;;5074437;28;20028;-50
2021/01/11 13:13:28;;;;;;;70.65;42.60;;;;;;;;;;5073862;28;20021;-49
2021/01/11 13:15:54;;;;;;;70.40;44.08;;;;;;;;;;5076027;28;20037;-48
2021/01/11 13:18:20;;;;;;;71.45;44.97;;;;;;;;;;5076631;28;20031;-49
2021/01/11 13:20:46;;;;;;;66.28;41.05;;;;;;;;;;5074659;28;20472;-49
2021/01/11 13:23:14;;;;;;;56.00;35.97;;;;;;;;;;5074241;28;20020;-48
2021/01/11 13:25:40;;;;;;;72.93;44.63;;;;;;;;;;5075324;28;20376;-49
2021/01/11 13:28:06;;;;;;;64.13;40.30;;;;;;;;;;5078812;28;20743;-50
2021/01/11 13:30:37;;;;;;;56.75;36.22;;;;;;;;;;5092080;28;20039;-50
2021/01/11 13:33:03;;;;;;;59.70;38.13;;;;;;;;;;5078114;28;20032;-50
2021/01/11 13:35:29;;;;;;;59.42;37.17;;;;;;;;;;5076341;28;20105;-49
2021/01/11 13:37:55;;;;;;;65.60;39.28;;;;;;;;;;5080590;28;20024;-49
2021/01/11 13:40:21;;;;;;;49.63;32.05;;;;;;;;;;5079331;28;20035;-48
2021/01/11 13:42:47;;;;;;;57.83;37.95;;;;;;;;;;5076077;28;20016;-48
2021/01/11 13:45:13;;;;;;;68.50;38.28;;;;;;;;;;5080196;28;20073;-48
2021/01/11 13:47:44;;;;;;;94.28;52.30;;;;;;;;;;5080357;28;20017;-48
2021/01/11 13:50:11;;;;;;;92.60;53.33;;;;;;;;;;5080543;28;20031;-50
2021/01/11 13:52:37;;;;;;;75.88;45.50;;;;;;;;;;5093605;28;20051;-51
2021/01/11 13:55:04;;;;;;;71.28;44.58;;;;;;;;;;5093549;28;20048;-51
2021/01/11 13:57:30;;;;;;;85.00;50.33;;;;;;;;;;5093605;28;20081;-51
2021/01/11 13:59:57;;;;;;;66.75;40.08;;;;;;;;;;5089890;28;20110;-48
2021/01/11 14:02:23;;;;;;;63.72;40.90;;;;;;;;;;5087421;28;20020;-50
2021/01/11 14:04:50;;;;;;;58.88;38.38;;;;;;;;;;5076246;28;20021;-50
2021/01/11 14:07:16;;;;;;;106.50;66.97;;;;;;;;;;5070361;28;20028;-49
2021/01/11 14:09:42;;;;;;;88.50;54.42;;;;;;;;;;5070721;28;20495;-48
2021/01/11 14:12:08;;;;;;;80.20;49.33;;;;;;;;;;5069363;28;20055;-48
2021/01/11 14:14:35;;;;;;;102.78;63.30;;;;;;;;;;5069944;28;20035;-48
2021/01/11 14:17:01;;;;;;;82.57;49.03;;;;;;;;;;5083472;28;20020;-51